CAO3694 ZBAA-ZJHK
Flight info
| Callsign | CAO3694 |
|---|---|
| Flight time | N/A |
| Altitude | 34100 |
| Route | RUSD6J/18L RUSDO W45 NUPTI R343 LBN/K0911S1070 W159 BHY W70 NYB |
| Aircraft | B77L/H-SDE1E2E3FGHIJ2J3J4J5M1RWXY/LB1D1 |
Departure
| Time | N/A |
|---|---|
| Airport | Beijing Capital International Airport (ZBAA) |
Arrival
| Time | 2026-04-23 15:11 |
|---|---|
| Airport | Haikou Meilan International Airport (ZJHK) |
| Time | Latitude | Longitude | Altitude | Speed | Heading |
|---|---|---|---|---|---|
| 2026-04-23 12:42 | 35.09409 | 112.52340 | 35992 ft | 481 kts | 202° |
| 2026-04-23 12:42 | 35.02995 | 112.49992 | 35984 ft | 481 kts | 201° |
| 2026-04-23 12:43 | 34.96579 | 112.47691 | 35994 ft | 480 kts | 201° |
| 2026-04-23 12:43 | 34.90174 | 112.45351 | 35986 ft | 480 kts | 202° |
| 2026-04-23 12:44 | 34.83768 | 112.42999 | 35975 ft | 480 kts | 202° |
| 2026-04-23 12:44 | 34.77383 | 112.40763 | 36069 ft | 482 kts | 197° |
| 2026-04-23 12:45 | 34.70663 | 112.39824 | 36082 ft | 491 kts | 186° |
| 2026-04-23 12:45 | 34.63785 | 112.40264 | 36093 ft | 496 kts | 180° |
| 2026-04-23 12:46 | 34.56887 | 112.40942 | 36084 ft | 497 kts | 180° |
| 2026-04-23 12:46 | 34.49981 | 112.41585 | 36083 ft | 498 kts | 181° |
| 2026-04-23 12:47 | 34.43057 | 112.42187 | 36088 ft | 498 kts | 181° |
| 2026-04-23 12:47 | 34.36188 | 112.42772 | 36092 ft | 498 kts | 181° |
| 2026-04-23 12:48 | 34.29261 | 112.43361 | 36090 ft | 499 kts | 181° |
| 2026-04-23 12:48 | 34.22335 | 112.43951 | 36091 ft | 499 kts | 181° |
| 2026-04-23 12:49 | 34.15415 | 112.44541 | 36088 ft | 498 kts | 181° |
| 2026-04-23 12:49 | 34.08502 | 112.45130 | 36092 ft | 497 kts | 181° |
| 2026-04-23 12:50 | 34.01604 | 112.45716 | 36101 ft | 496 kts | 181° |
| 2026-04-23 12:50 | 33.94722 | 112.46297 | 36093 ft | 495 kts | 181° |
| 2026-04-23 12:51 | 33.87856 | 112.46881 | 36085 ft | 494 kts | 181° |
| 2026-04-23 12:51 | 33.81037 | 112.47457 | 36110 ft | 493 kts | 181° |
| 2026-04-23 12:52 | 33.74199 | 112.48034 | 36118 ft | 492 kts | 181° |
| 2026-04-23 12:52 | 33.67354 | 112.48610 | 36129 ft | 492 kts | 181° |
| 2026-04-23 12:53 | 33.60525 | 112.49181 | 36120 ft | 491 kts | 182° |
| 2026-04-23 12:53 | 33.53682 | 112.49767 | 36114 ft | 492 kts | 181° |
| 2026-04-23 12:54 | 33.46895 | 112.50348 | 36131 ft | 492 kts | 181° |
| 2026-04-23 12:54 | 33.40062 | 112.50927 | 36121 ft | 492 kts | 181° |
| 2026-04-23 12:55 | 33.33231 | 112.51505 | 36116 ft | 492 kts | 182° |
| 2026-04-23 12:55 | 33.26404 | 112.52081 | 36120 ft | 491 kts | 182° |
| 2026-04-23 12:56 | 33.19582 | 112.52656 | 36125 ft | 491 kts | 182° |
| 2026-04-23 12:56 | 33.12760 | 112.53231 | 36096 ft | 491 kts | 182° |
| 2026-04-23 12:57 | 33.07102 | 112.53707 | 36117 ft | 490 kts | 182° |
| 2026-04-23 12:57 | 33.00338 | 112.54275 | 36117 ft | 490 kts | 182° |
| 2026-04-23 12:58 | 32.93555 | 112.54559 | 36114 ft | 483 kts | 189° |
| 2026-04-23 12:58 | 32.86975 | 112.53428 | 36109 ft | 473 kts | 200° |
| 2026-04-23 12:59 | 32.80706 | 112.51220 | 36120 ft | 470 kts | 202° |
| 2026-04-23 12:59 | 32.74437 | 112.49117 | 36122 ft | 471 kts | 201° |
| 2026-04-23 13:00 | 32.68107 | 112.47094 | 36121 ft | 471 kts | 201° |
| 2026-04-23 13:00 | 32.61775 | 112.45062 | 36112 ft | 470 kts | 201° |
| 2026-04-23 13:01 | 32.55452 | 112.43017 | 36120 ft | 471 kts | 201° |
| 2026-04-23 13:01 | 32.49128 | 112.40969 | 36123 ft | 471 kts | 201° |
| 2026-04-23 13:02 | 32.42801 | 112.38923 | 36123 ft | 472 kts | 201° |
| 2026-04-23 13:02 | 32.36511 | 112.36894 | 36114 ft | 471 kts | 201° |
| 2026-04-23 13:03 | 32.30186 | 112.34856 | 36125 ft | 471 kts | 201° |
| 2026-04-23 13:03 | 32.23861 | 112.32821 | 36124 ft | 471 kts | 201° |
| 2026-04-23 13:04 | 32.17537 | 112.30788 | 36129 ft | 470 kts | 201° |
| 2026-04-23 13:04 | 32.11234 | 112.28766 | 36124 ft | 469 kts | 202° |
| 2026-04-23 13:05 | 32.04862 | 112.26968 | 36126 ft | 473 kts | 197° |
| 2026-04-23 13:05 | 31.98423 | 112.25679 | 36129 ft | 473 kts | 196° |
| 2026-04-23 13:06 | 31.88688 | 112.23748 | 36125 ft | 472 kts | 196° |
| 2026-04-23 13:07 | 31.82209 | 112.22436 | 36128 ft | 472 kts | 197° |
| 2026-04-23 13:07 | 31.75731 | 112.21119 | 36128 ft | 472 kts | 197° |
| 2026-04-23 13:08 | 31.69260 | 112.19807 | 36117 ft | 472 kts | 197° |
| 2026-04-23 13:08 | 31.62793 | 112.18499 | 36129 ft | 471 kts | 197° |
| 2026-04-23 13:09 | 31.56358 | 112.17198 | 36134 ft | 471 kts | 197° |
| 2026-04-23 13:09 | 31.49893 | 112.15893 | 36137 ft | 471 kts | 197° |
| 2026-04-23 13:10 | 31.43431 | 112.14591 | 36094 ft | 471 kts | 197° |
| 2026-04-23 13:10 | 31.37002 | 112.13232 | 36132 ft | 468 kts | 199° |
| 2026-04-23 13:11 | 31.30639 | 112.11652 | 36132 ft | 467 kts | 199° |
| 2026-04-23 13:11 | 31.24289 | 112.10051 | 36138 ft | 467 kts | 199° |
| 2026-04-23 13:12 | 31.17929 | 112.08482 | 36120 ft | 467 kts | 199° |
| 2026-04-23 13:12 | 31.11616 | 112.06945 | 36139 ft | 467 kts | 199° |
| 2026-04-23 13:13 | 31.05293 | 112.05407 | 36134 ft | 467 kts | 199° |
| 2026-04-23 13:13 | 30.98953 | 112.03867 | 36136 ft | 467 kts | 199° |
| 2026-04-23 13:14 | 30.92588 | 112.02323 | 36119 ft | 466 kts | 199° |
| 2026-04-23 13:14 | 30.86244 | 112.00786 | 36133 ft | 465 kts | 199° |
| 2026-04-23 13:15 | 30.79994 | 111.99272 | 36136 ft | 464 kts | 199° |
| 2026-04-23 13:15 | 30.73667 | 111.97742 | 36136 ft | 463 kts | 199° |
| 2026-04-23 13:16 | 30.67398 | 111.96229 | 36112 ft | 462 kts | 200° |
| 2026-04-23 13:16 | 30.61112 | 111.94716 | 36130 ft | 461 kts | 200° |
| 2026-04-23 13:17 | 30.54831 | 111.93204 | 36136 ft | 460 kts | 200° |
| 2026-04-23 13:17 | 30.48565 | 111.91698 | 36138 ft | 459 kts | 200° |
| 2026-04-23 13:18 | 30.42310 | 111.90196 | 36115 ft | 458 kts | 200° |
| 2026-04-23 13:18 | 30.36058 | 111.88698 | 36132 ft | 457 kts | 200° |
| 2026-04-23 13:19 | 30.29872 | 111.87217 | 36138 ft | 456 kts | 200° |
| 2026-04-23 13:19 | 30.23663 | 111.85731 | 36140 ft | 455 kts | 200° |
| 2026-04-23 13:20 | 30.17464 | 111.84251 | 36095 ft | 454 kts | 201° |
| 2026-04-23 13:20 | 30.11292 | 111.82781 | 36129 ft | 452 kts | 201° |
| 2026-04-23 13:21 | 30.05145 | 111.81316 | 36133 ft | 449 kts | 201° |
| 2026-04-23 13:21 | 29.99038 | 111.79862 | 36143 ft | 448 kts | 201° |
| 2026-04-23 13:22 | 29.92958 | 111.78414 | 36091 ft | 450 kts | 200° |
| 2026-04-23 13:22 | 29.86831 | 111.76961 | 36134 ft | 449 kts | 201° |
| 2026-04-23 13:23 | 29.80710 | 111.75510 | 36147 ft | 449 kts | 201° |
| 2026-04-23 13:23 | 29.74578 | 111.74058 | 36133 ft | 449 kts | 201° |
| 2026-04-23 13:24 | 29.68449 | 111.72609 | 36140 ft | 449 kts | 201° |
| 2026-04-23 13:24 | 29.62339 | 111.71168 | 36134 ft | 448 kts | 201° |
| 2026-04-23 13:25 | 29.56239 | 111.69728 | 36136 ft | 447 kts | 201° |
| 2026-04-23 13:25 | 29.50188 | 111.68302 | 36133 ft | 446 kts | 201° |
| 2026-04-23 13:26 | 29.44111 | 111.66871 | 36133 ft | 446 kts | 201° |
| 2026-04-23 13:26 | 29.38036 | 111.65443 | 36133 ft | 445 kts | 201° |
| 2026-04-23 13:27 | 29.31815 | 111.64540 | 36139 ft | 457 kts | 193° |
| 2026-04-23 13:27 | 29.25453 | 111.64254 | 36141 ft | 458 kts | 192° |
| 2026-04-23 13:28 | 29.19077 | 111.63958 | 36135 ft | 457 kts | 193° |
| 2026-04-23 13:28 | 29.12757 | 111.63640 | 36116 ft | 457 kts | 193° |
| 2026-04-23 13:29 | 29.06419 | 111.63313 | 36131 ft | 456 kts | 193° |
| 2026-04-23 13:29 | 29.00083 | 111.62985 | 36136 ft | 456 kts | 193° |
| 2026-04-23 13:30 | 28.93726 | 111.62658 | 36139 ft | 456 kts | 193° |
| 2026-04-23 13:30 | 28.87389 | 111.62333 | 36101 ft | 455 kts | 193° |
| 2026-04-23 13:31 | 28.81130 | 111.61914 | 36123 ft | 450 kts | 196° |
| 2026-04-23 13:31 | 28.74916 | 111.61181 | 36135 ft | 449 kts | 197° |
| 2026-04-23 13:32 | 28.68689 | 111.60433 | 36133 ft | 449 kts | 197° |
| 2026-04-23 13:32 | 28.62462 | 111.59738 | 36128 ft | 450 kts | 196° |
| 2026-04-23 13:33 | 28.56251 | 111.59056 | 36125 ft | 449 kts | 197° |
| 2026-04-23 13:33 | 28.50030 | 111.58370 | 36139 ft | 448 kts | 197° |
| 2026-04-23 13:34 | 28.43815 | 111.57689 | 36139 ft | 449 kts | 197° |
| 2026-04-23 13:34 | 28.37591 | 111.57020 | 36141 ft | 449 kts | 197° |
| 2026-04-23 13:35 | 28.31364 | 111.56368 | 36132 ft | 448 kts | 197° |
| 2026-04-23 13:35 | 28.25209 | 111.55724 | 36144 ft | 447 kts | 197° |
| 2026-04-23 13:36 | 28.19033 | 111.55070 | 36140 ft | 445 kts | 197° |
| 2026-04-23 13:36 | 28.12882 | 111.54421 | 36142 ft | 443 kts | 197° |
| 2026-04-23 13:37 | 28.06750 | 111.53773 | 36084 ft | 441 kts | 197° |
| 2026-04-23 13:37 | 28.00658 | 111.53135 | 36121 ft | 438 kts | 197° |
| 2026-04-23 13:38 | 27.94610 | 111.52499 | 36141 ft | 436 kts | 197° |
| 2026-04-23 13:38 | 27.88577 | 111.51863 | 36145 ft | 435 kts | 198° |
| 2026-04-23 13:39 | 27.82572 | 111.51237 | 36144 ft | 437 kts | 197° |
| 2026-04-23 13:39 | 27.76519 | 111.50599 | 36107 ft | 436 kts | 198° |
| 2026-04-23 13:40 | 27.70476 | 111.49966 | 36135 ft | 436 kts | 198° |
| 2026-04-23 13:40 | 27.64431 | 111.49339 | 36137 ft | 436 kts | 198° |
| 2026-04-23 13:41 | 27.58383 | 111.48707 | 36132 ft | 436 kts | 198° |
| 2026-04-23 13:41 | 27.52335 | 111.48075 | 36097 ft | 436 kts | 198° |
| 2026-04-23 13:42 | 27.46285 | 111.47453 | 36126 ft | 437 kts | 198° |
| 2026-04-23 13:42 | 27.40272 | 111.46821 | 36134 ft | 437 kts | 198° |
| 2026-04-23 13:43 | 27.34210 | 111.46185 | 36132 ft | 437 kts | 198° |
| 2026-04-23 13:43 | 27.28151 | 111.45557 | 36125 ft | 437 kts | 198° |
| 2026-04-23 13:44 | 27.22101 | 111.44933 | 36091 ft | 436 kts | 198° |
| 2026-04-23 13:44 | 27.16063 | 111.44309 | 36119 ft | 435 kts | 198° |
| 2026-04-23 13:45 | 27.11046 | 111.43787 | 36132 ft | 435 kts | 198° |
| 2026-04-23 13:45 | 27.04014 | 111.43060 | 36122 ft | 436 kts | 198° |
| 2026-04-23 13:46 | 26.97977 | 111.42437 | 36125 ft | 436 kts | 198° |
| 2026-04-23 13:46 | 26.95016 | 111.41931 | 36097 ft | 423 kts | 206° |
| 2026-04-23 13:46 | 26.92238 | 111.40990 | 36120 ft | 414 kts | 211° |
| 2026-04-23 13:47 | 26.87810 | 111.38868 | 36133 ft | 411 kts | 218° |
| 2026-04-23 13:47 | 26.83025 | 111.35452 | 36129 ft | 409 kts | 222° |
| 2026-04-23 13:48 | 26.78309 | 111.31936 | 36135 ft | 411 kts | 222° |
| 2026-04-23 13:48 | 26.73519 | 111.28414 | 36131 ft | 413 kts | 221° |
| 2026-04-23 13:49 | 26.68692 | 111.24886 | 36133 ft | 411 kts | 221° |
| 2026-04-23 13:49 | 26.63958 | 111.21433 | 36121 ft | 403 kts | 222° |
| 2026-04-23 13:50 | 26.59262 | 111.18009 | 36137 ft | 405 kts | 221° |
| 2026-04-23 13:50 | 26.54463 | 111.14629 | 36127 ft | 410 kts | 220° |
| 2026-04-23 13:51 | 26.49565 | 111.11340 | 36129 ft | 409 kts | 220° |
| 2026-04-23 13:51 | 26.44720 | 111.08032 | 36083 ft | 407 kts | 220° |
| 2026-04-23 13:52 | 26.39901 | 111.04762 | 36138 ft | 406 kts | 220° |
| 2026-04-23 13:52 | 26.35093 | 111.01491 | 36125 ft | 409 kts | 220° |
| 2026-04-23 13:53 | 26.30282 | 110.98225 | 36126 ft | 411 kts | 220° |
| 2026-04-23 13:53 | 26.25389 | 110.94898 | 36131 ft | 411 kts | 220° |
| 2026-04-23 13:54 | 26.20493 | 110.91582 | 36131 ft | 411 kts | 220° |
| 2026-04-23 13:54 | 26.15599 | 110.88262 | 36106 ft | 412 kts | 220° |
| 2026-04-23 13:55 | 26.10695 | 110.84944 | 36136 ft | 413 kts | 220° |
| 2026-04-23 13:55 | 26.05785 | 110.81627 | 36119 ft | 416 kts | 219° |
| 2026-04-23 13:56 | 26.00849 | 110.78277 | 36145 ft | 415 kts | 220° |
| 2026-04-23 13:56 | 25.95938 | 110.74929 | 36126 ft | 411 kts | 220° |
| 2026-04-23 13:57 | 25.91070 | 110.71620 | 36135 ft | 410 kts | 220° |
| 2026-04-23 13:57 | 25.86136 | 110.68274 | 36129 ft | 418 kts | 220° |
| 2026-04-23 13:58 | 25.81165 | 110.64911 | 36116 ft | 417 kts | 220° |
| 2026-04-23 13:58 | 25.76250 | 110.61578 | 36125 ft | 416 kts | 220° |
| 2026-04-23 13:59 | 25.71327 | 110.58208 | 36106 ft | 413 kts | 221° |
| 2026-04-23 13:59 | 25.66467 | 110.54818 | 36048 ft | 414 kts | 221° |
| 2026-04-23 14:00 | 25.62399 | 110.52001 | 36100 ft | 416 kts | 221° |
| 2026-04-23 14:00 | 25.56633 | 110.47997 | 36121 ft | 421 kts | 220° |
| 2026-04-23 14:01 | 25.51762 | 110.44472 | 36116 ft | 421 kts | 222° |
| 2026-04-23 14:01 | 25.46898 | 110.40847 | 36098 ft | 419 kts | 222° |
| 2026-04-23 14:02 | 25.42082 | 110.37299 | 36090 ft | 413 kts | 222° |
| 2026-04-23 14:02 | 25.37324 | 110.33753 | 36095 ft | 412 kts | 223° |
| 2026-04-23 14:03 | 25.32568 | 110.30195 | 36093 ft | 413 kts | 223° |
| 2026-04-23 14:03 | 25.27791 | 110.26629 | 36089 ft | 416 kts | 223° |
| 2026-04-23 14:04 | 25.23018 | 110.23075 | 36092 ft | 417 kts | 223° |
| 2026-04-23 14:04 | 25.18191 | 110.19479 | 36102 ft | 419 kts | 222° |
| 2026-04-23 14:05 | 25.13355 | 110.15871 | 36048 ft | 421 kts | 222° |
| 2026-04-23 14:05 | 25.08508 | 110.12251 | 36089 ft | 422 kts | 222° |
| 2026-04-23 14:06 | 25.03631 | 110.08612 | 36090 ft | 424 kts | 222° |
| 2026-04-23 14:06 | 24.98745 | 110.04972 | 36083 ft | 424 kts | 222° |
| 2026-04-23 14:07 | 24.93875 | 110.01349 | 36081 ft | 422 kts | 222° |
| 2026-04-23 14:07 | 24.86663 | 109.95990 | 36047 ft | 424 kts | 222° |
| 2026-04-23 14:08 | 24.81764 | 109.92360 | 36063 ft | 424 kts | 222° |
| 2026-04-23 14:08 | 24.76873 | 109.88722 | 36073 ft | 425 kts | 222° |
| 2026-04-23 14:09 | 24.71964 | 109.85081 | 36059 ft | 425 kts | 222° |
| 2026-04-23 14:09 | 24.67051 | 109.81448 | 36074 ft | 425 kts | 222° |
| 2026-04-23 14:10 | 24.62161 | 109.77823 | 36057 ft | 424 kts | 222° |
| 2026-04-23 14:10 | 24.57266 | 109.74191 | 36041 ft | 425 kts | 222° |
| 2026-04-23 14:11 | 24.52389 | 109.70575 | 36046 ft | 426 kts | 222° |
| 2026-04-23 14:11 | 24.47471 | 109.66934 | 36054 ft | 426 kts | 222° |
| 2026-04-23 14:12 | 24.42545 | 109.63290 | 36053 ft | 427 kts | 222° |
| 2026-04-23 14:12 | 24.37607 | 109.59643 | 36051 ft | 428 kts | 222° |
| 2026-04-23 14:13 | 24.32664 | 109.56004 | 36006 ft | 428 kts | 222° |
| 2026-04-23 14:13 | 24.27713 | 109.52358 | 36046 ft | 429 kts | 222° |
| 2026-04-23 14:14 | 24.22773 | 109.48719 | 36036 ft | 431 kts | 222° |
| 2026-04-23 14:14 | 24.17784 | 109.45057 | 36054 ft | 431 kts | 222° |
| 2026-04-23 14:15 | 24.12800 | 109.41400 | 36045 ft | 431 kts | 222° |
| 2026-04-23 14:15 | 24.07815 | 109.37743 | 36044 ft | 431 kts | 222° |
| 2026-04-23 14:16 | 24.02857 | 109.34108 | 36043 ft | 431 kts | 222° |
| 2026-04-23 14:16 | 23.97865 | 109.30454 | 36031 ft | 431 kts | 222° |
| 2026-04-23 14:17 | 23.92888 | 109.26813 | 36038 ft | 430 kts | 222° |
| 2026-04-23 14:17 | 23.87921 | 109.23183 | 36039 ft | 429 kts | 222° |
| 2026-04-23 14:18 | 23.82964 | 109.19563 | 36044 ft | 428 kts | 222° |
| 2026-04-23 14:18 | 23.77687 | 109.16450 | 36023 ft | 445 kts | 206° |
| 2026-04-23 14:19 | 23.74641 | 109.15642 | 36034 ft | 456 kts | 200° |
| 2026-04-23 14:19 | 23.71483 | 109.15273 | 36026 ft | 470 kts | 190° |
| 2026-04-23 14:19 | 23.64844 | 109.15989 | 36038 ft | 483 kts | 182° |
| 2026-04-23 14:20 | 23.58164 | 109.17012 | 36037 ft | 485 kts | 182° |
| 2026-04-23 14:20 | 23.51467 | 109.17979 | 36047 ft | 485 kts | 183° |
| 2026-04-23 14:21 | 23.44758 | 109.18881 | 36024 ft | 485 kts | 183° |
| 2026-04-23 14:21 | 23.38047 | 109.19759 | 36036 ft | 486 kts | 183° |
| 2026-04-23 14:22 | 23.31334 | 109.20637 | 36031 ft | 486 kts | 183° |
| 2026-04-23 14:22 | 23.24666 | 109.21513 | 36035 ft | 485 kts | 183° |
| 2026-04-23 14:23 | 23.17960 | 109.22394 | 36032 ft | 485 kts | 183° |
| 2026-04-23 14:23 | 23.11273 | 109.23268 | 36046 ft | 482 kts | 182° |
| 2026-04-23 14:24 | 23.04613 | 109.24146 | 36027 ft | 482 kts | 182° |
| 2026-04-23 14:24 | 22.97955 | 109.25020 | 36022 ft | 483 kts | 182° |
| 2026-04-23 14:25 | 22.91283 | 109.25891 | 36028 ft | 483 kts | 182° |
| 2026-04-23 14:25 | 22.84647 | 109.26756 | 36008 ft | 484 kts | 182° |
| 2026-04-23 14:26 | 22.77943 | 109.27632 | 36032 ft | 486 kts | 182° |
| 2026-04-23 14:26 | 22.71221 | 109.28509 | 36038 ft | 487 kts | 182° |
| 2026-04-23 14:27 | 22.64474 | 109.29397 | 36037 ft | 489 kts | 182° |
| 2026-04-23 14:27 | 22.57704 | 109.30294 | 36033 ft | 490 kts | 182° |
| 2026-04-23 14:28 | 22.50919 | 109.31191 | 36020 ft | 491 kts | 181° |
| 2026-04-23 14:28 | 22.44175 | 109.32081 | 36026 ft | 491 kts | 181° |
| 2026-04-23 14:29 | 22.37386 | 109.32977 | 36027 ft | 491 kts | 181° |
| 2026-04-23 14:29 | 22.30590 | 109.33872 | 36026 ft | 491 kts | 181° |
| 2026-04-23 14:30 | 22.23804 | 109.34762 | 36018 ft | 490 kts | 181° |
| 2026-04-23 14:30 | 22.17027 | 109.35643 | 36020 ft | 489 kts | 181° |
| 2026-04-23 14:31 | 22.10304 | 109.36515 | 36018 ft | 489 kts | 181° |
| 2026-04-23 14:31 | 22.03538 | 109.37393 | 36020 ft | 489 kts | 181° |
| 2026-04-23 14:32 | 21.96777 | 109.38272 | 36021 ft | 490 kts | 181° |
| 2026-04-23 14:32 | 21.90007 | 109.39150 | 35998 ft | 490 kts | 180° |
| 2026-04-23 14:33 | 21.83226 | 109.40028 | 36013 ft | 490 kts | 180° |
| 2026-04-23 14:33 | 21.76482 | 109.40901 | 36021 ft | 491 kts | 180° |
| 2026-04-23 14:34 | 21.69676 | 109.41782 | 36020 ft | 492 kts | 180° |
| 2026-04-23 14:34 | 21.64019 | 109.42518 | 36019 ft | 493 kts | 179° |
| 2026-04-23 14:35 | 21.57295 | 109.44404 | 36012 ft | 506 kts | 165° |
| 2026-04-23 14:35 | 21.50940 | 109.47828 | 36017 ft | 516 kts | 155° |
| 2026-04-23 14:36 | 21.44770 | 109.51796 | 36020 ft | 516 kts | 155° |
| 2026-04-23 14:36 | 21.37559 | 109.56291 | 36013 ft | 515 kts | 156° |
| 2026-04-23 14:37 | 21.32175 | 109.58994 | 36016 ft | 505 kts | 167° |
| 2026-04-23 14:37 | 21.25461 | 109.60912 | 36000 ft | 494 kts | 178° |
| 2026-04-23 14:38 | 21.18657 | 109.61877 | 36014 ft | 493 kts | 179° |
| 2026-04-23 14:38 | 21.11896 | 109.62789 | 35946 ft | 491 kts | 179° |
| 2026-04-23 14:39 | 21.08507 | 109.63263 | 35674 ft | 492 kts | 179° |
| 2026-04-23 14:39 | 21.05059 | 109.63753 | 35312 ft | 495 kts | 179° |
| 2026-04-23 14:39 | 21.01680 | 109.64238 | 34930 ft | 498 kts | 178° |
| 2026-04-23 14:39 | 20.98246 | 109.64735 | 34542 ft | 501 kts | 178° |
| 2026-04-23 14:40 | 20.94776 | 109.65238 | 34156 ft | 504 kts | 178° |
| 2026-04-23 14:40 | 20.91293 | 109.65744 | 33757 ft | 506 kts | 178° |
| 2026-04-23 14:40 | 20.87801 | 109.66250 | 33383 ft | 507 kts | 178° |
| 2026-04-23 14:40 | 20.84294 | 109.66758 | 33039 ft | 507 kts | 178° |
| 2026-04-23 14:41 | 20.80796 | 109.67265 | 32682 ft | 506 kts | 178° |
| 2026-04-23 14:41 | 20.77300 | 109.67769 | 32290 ft | 507 kts | 178° |
| 2026-04-23 14:41 | 20.73803 | 109.68273 | 31880 ft | 507 kts | 178° |
| 2026-04-23 14:41 | 20.70343 | 109.68772 | 31475 ft | 508 kts | 178° |
| 2026-04-23 14:42 | 20.66835 | 109.69277 | 31046 ft | 508 kts | 178° |
| 2026-04-23 14:42 | 20.63325 | 109.69783 | 30589 ft | 509 kts | 177° |
| 2026-04-23 14:42 | 20.59815 | 109.70289 | 30130 ft | 510 kts | 177° |
| 2026-04-23 14:42 | 20.56301 | 109.70795 | 29772 ft | 507 kts | 176° |
| 2026-04-23 14:43 | 20.52846 | 109.71548 | 29459 ft | 509 kts | 167° |
| 2026-04-23 14:43 | 20.49527 | 109.72904 | 29171 ft | 511 kts | 159° |
| 2026-04-23 14:43 | 20.46401 | 109.74739 | 28870 ft | 513 kts | 150° |
| 2026-04-23 14:43 | 20.43554 | 109.77043 | 28526 ft | 514 kts | 144° |
| 2026-04-23 14:44 | 20.40810 | 109.79483 | 28214 ft | 512 kts | 143° |
| 2026-04-23 14:44 | 20.38090 | 109.81927 | 27909 ft | 510 kts | 143° |
| 2026-04-23 14:44 | 20.35378 | 109.84348 | 27617 ft | 507 kts | 143° |
| 2026-04-23 14:44 | 20.32674 | 109.86734 | 27326 ft | 504 kts | 144° |
| 2026-04-23 14:45 | 20.29967 | 109.89097 | 27101 ft | 500 kts | 144° |
| 2026-04-23 14:45 | 20.27293 | 109.91417 | 27061 ft | 492 kts | 144° |
| 2026-04-23 14:45 | 20.24687 | 109.93673 | 27016 ft | 485 kts | 144° |
| 2026-04-23 14:45 | 20.22080 | 109.95925 | 26985 ft | 478 kts | 144° |
| 2026-04-23 14:46 | 20.19510 | 109.98146 | 26939 ft | 472 kts | 144° |
| 2026-04-23 14:46 | 20.16984 | 110.00329 | 26903 ft | 466 kts | 144° |
| 2026-04-23 14:46 | 20.14488 | 110.02487 | 26828 ft | 454 kts | 144° |
| 2026-04-23 14:46 | 20.12079 | 110.04572 | 26736 ft | 438 kts | 144° |
| 2026-04-23 14:47 | 20.09754 | 110.06582 | 26657 ft | 424 kts | 144° |
| 2026-04-23 14:47 | 20.07500 | 110.08528 | 26553 ft | 410 kts | 145° |
| 2026-04-23 14:47 | 20.05309 | 110.10418 | 26494 ft | 403 kts | 145° |
| 2026-04-23 14:47 | 20.03127 | 110.12297 | 26394 ft | 402 kts | 145° |
| 2026-04-23 14:48 | 20.00948 | 110.14174 | 26217 ft | 404 kts | 144° |
| 2026-04-23 14:48 | 19.98769 | 110.16050 | 26068 ft | 404 kts | 144° |
| 2026-04-23 14:48 | 19.96610 | 110.17909 | 25964 ft | 404 kts | 145° |
| 2026-04-23 14:48 | 19.94432 | 110.19786 | 25861 ft | 402 kts | 144° |
| 2026-04-23 14:49 | 19.92260 | 110.21656 | 25757 ft | 401 kts | 144° |
| 2026-04-23 14:49 | 19.90091 | 110.23526 | 25649 ft | 401 kts | 144° |
| 2026-04-23 14:49 | 19.87925 | 110.25392 | 25534 ft | 400 kts | 144° |
| 2026-04-23 14:49 | 19.85758 | 110.27260 | 25419 ft | 400 kts | 144° |
| 2026-04-23 14:50 | 19.83598 | 110.29121 | 25325 ft | 399 kts | 144° |
| 2026-04-23 14:50 | 19.81440 | 110.30980 | 25204 ft | 399 kts | 144° |
| 2026-04-23 14:50 | 19.79289 | 110.32835 | 25109 ft | 398 kts | 144° |
| 2026-04-23 14:50 | 19.77142 | 110.34686 | 25010 ft | 398 kts | 144° |
| 2026-04-23 14:51 | 19.74993 | 110.36538 | 24904 ft | 397 kts | 144° |
| 2026-04-23 14:51 | 19.72857 | 110.38325 | 24784 ft | 393 kts | 150° |
| 2026-04-23 14:51 | 19.70476 | 110.39702 | 24636 ft | 387 kts | 163° |
| 2026-04-23 14:51 | 19.67910 | 110.40487 | 24512 ft | 380 kts | 176° |
| 2026-04-23 14:52 | 19.65316 | 110.40632 | 24417 ft | 369 kts | 193° |
| 2026-04-23 14:52 | 19.62952 | 110.39784 | 24248 ft | 354 kts | 218° |
| 2026-04-23 14:52 | 19.61259 | 110.37975 | 24099 ft | 343 kts | 244° |
| 2026-04-23 14:52 | 19.60537 | 110.35612 | 23908 ft | 338 kts | 265° |
| 2026-04-23 14:53 | 19.60433 | 110.33116 | 23719 ft | 340 kts | 270° |
| 2026-04-23 14:53 | 19.60556 | 110.30610 | 23598 ft | 340 kts | 277° |
| 2026-04-23 14:53 | 19.61149 | 110.28192 | 23481 ft | 341 kts | 295° |
| 2026-04-23 14:53 | 19.62517 | 110.26146 | 23251 ft | 340 kts | 311° |
| 2026-04-23 14:54 | 19.64335 | 110.24562 | 22683 ft | 349 kts | 326° |
| 2026-04-23 14:54 | 19.66556 | 110.23461 | 22065 ft | 351 kts | 333° |
| 2026-04-23 14:54 | 19.68815 | 110.22508 | 21453 ft | 348 kts | 334° |
| 2026-04-23 14:54 | 19.71059 | 110.21575 | 20841 ft | 344 kts | 334° |
| 2026-04-23 14:55 | 19.73262 | 110.20634 | 20237 ft | 339 kts | 333° |
| 2026-04-23 14:55 | 19.75430 | 110.19685 | 19677 ft | 335 kts | 333° |
| 2026-04-23 14:55 | 19.77591 | 110.18771 | 19100 ft | 333 kts | 338° |
| 2026-04-23 14:55 | 19.79835 | 110.18184 | 18545 ft | 332 kts | 344° |
| 2026-04-23 14:56 | 19.82058 | 110.17728 | 17979 ft | 329 kts | 345° |
| 2026-04-23 14:56 | 19.84304 | 110.17280 | 17345 ft | 327 kts | 345° |
| 2026-04-23 14:56 | 19.86529 | 110.16829 | 16730 ft | 324 kts | 345° |
| 2026-04-23 14:56 | 19.88740 | 110.16373 | 16113 ft | 320 kts | 345° |
| 2026-04-23 14:57 | 19.90911 | 110.15918 | 15507 ft | 316 kts | 345° |
| 2026-04-23 14:57 | 19.93057 | 110.15464 | 14917 ft | 312 kts | 345° |
| 2026-04-23 14:57 | 19.95175 | 110.15015 | 14352 ft | 309 kts | 345° |
| 2026-04-23 14:57 | 19.97275 | 110.14569 | 13789 ft | 307 kts | 345° |
| 2026-04-23 14:58 | 19.99383 | 110.14118 | 13189 ft | 312 kts | 345° |
| 2026-04-23 14:58 | 20.01541 | 110.13660 | 12578 ft | 318 kts | 347° |
| 2026-04-23 14:58 | 20.03738 | 110.13432 | 11993 ft | 325 kts | 355° |
| 2026-04-23 14:58 | 20.06009 | 110.13441 | 11641 ft | 322 kts | 358° |
| 2026-04-23 14:59 | 20.08228 | 110.13487 | 11401 ft | 315 kts | 358° |
| 2026-04-23 14:59 | 20.10386 | 110.13582 | 11132 ft | 306 kts | 8° |
| 2026-04-23 14:59 | 20.12286 | 110.14523 | 10869 ft | 302 kts | 42° |
| 2026-04-23 14:59 | 20.13493 | 110.16295 | 10643 ft | 293 kts | 69° |
| 2026-04-23 15:00 | 20.13943 | 110.18362 | 10396 ft | 283 kts | 90° |
| 2026-04-23 15:00 | 20.13713 | 110.20387 | 10141 ft | 271 kts | 111° |
| 2026-04-23 15:00 | 20.12883 | 110.22108 | 9877 ft | 253 kts | 133° |
| 2026-04-23 15:00 | 20.11634 | 110.23285 | 9616 ft | 238 kts | 154° |
| 2026-04-23 15:01 | 20.10115 | 110.23929 | 9457 ft | 232 kts | 171° |
| 2026-04-23 15:01 | 20.08505 | 110.24031 | 9203 ft | 233 kts | 189° |
| 2026-04-23 15:01 | 20.06936 | 110.23566 | 8960 ft | 233 kts | 207° |
| 2026-04-23 15:01 | 20.05583 | 110.22683 | 8717 ft | 225 kts | 218° |
| 2026-04-23 15:02 | 20.04811 | 110.21960 | 8469 ft | 224 kts | 228° |
| 2026-04-23 15:02 | 20.03796 | 110.20028 | 7708 ft | 228 kts | 247° |
| 2026-04-23 15:02 | 20.03224 | 110.18455 | 7125 ft | 229 kts | 248° |
| 2026-04-23 15:02 | 20.02645 | 110.16859 | 6570 ft | 233 kts | 248° |
| 2026-04-23 15:03 | 20.02041 | 110.15245 | 5997 ft | 233 kts | 243° |
| 2026-04-23 15:03 | 20.01010 | 110.14023 | 5566 ft | 224 kts | 207° |
| 2026-04-23 15:03 | 19.99527 | 110.13703 | 5206 ft | 215 kts | 182° |
| 2026-04-23 15:03 | 19.98060 | 110.13688 | 4861 ft | 208 kts | 180° |
| 2026-04-23 15:04 | 19.96695 | 110.14031 | 4448 ft | 201 kts | 148° |
| 2026-04-23 15:04 | 19.95871 | 110.15151 | 4190 ft | 193 kts | 109° |
| 2026-04-23 15:04 | 19.95653 | 110.16549 | 3996 ft | 194 kts | 100° |
| 2026-04-23 15:04 | 19.95467 | 110.17990 | 3763 ft | 198 kts | 98° |
| 2026-04-23 15:05 | 19.95359 | 110.19454 | 3521 ft | 198 kts | 95° |
| 2026-04-23 15:05 | 19.95323 | 110.20903 | 3271 ft | 193 kts | 92° |
| 2026-04-23 15:05 | 19.95316 | 110.22286 | 3093 ft | 184 kts | 92° |
| 2026-04-23 15:05 | 19.95316 | 110.23659 | 3047 ft | 188 kts | 92° |
| 2026-04-23 15:06 | 19.95318 | 110.25011 | 3023 ft | 192 kts | 91° |
| 2026-04-23 15:06 | 19.95323 | 110.26423 | 3010 ft | 190 kts | 92° |
| 2026-04-23 15:06 | 19.95327 | 110.27829 | 3004 ft | 190 kts | 91° |
| 2026-04-23 15:06 | 19.95330 | 110.29213 | 2804 ft | 182 kts | 91° |
| 2026-04-23 15:07 | 19.95334 | 110.30478 | 2602 ft | 163 kts | 91° |
| 2026-04-23 15:07 | 19.95338 | 110.31616 | 2389 ft | 147 kts | 91° |
| 2026-04-23 15:07 | 19.95339 | 110.32714 | 2237 ft | 150 kts | 91° |
| 2026-04-23 15:07 | 19.95342 | 110.33830 | 2037 ft | 150 kts | 91° |
| 2026-04-23 15:08 | 19.95345 | 110.34923 | 1834 ft | 146 kts | 90° |
| 2026-04-23 15:08 | 19.95348 | 110.35999 | 1641 ft | 145 kts | 90° |
| 2026-04-23 15:08 | 19.95351 | 110.37070 | 1468 ft | 147 kts | 90° |
| 2026-04-23 15:09 | 19.95355 | 110.39231 | 1070 ft | 145 kts | 89° |
| 2026-04-23 15:09 | 19.95352 | 110.40307 | 902 ft | 145 kts | 88° |
| 2026-04-23 15:09 | 19.95356 | 110.41382 | 715 ft | 147 kts | 88° |
| 2026-04-23 15:09 | 19.95368 | 110.42483 | 548 ft | 150 kts | 87° |
| 2026-04-23 15:10 | 19.95370 | 110.43227 | 408 ft | 154 kts | 89° |
| 2026-04-23 15:10 | 19.95370 | 110.44719 | 160 ft | 151 kts | 89° |
| 2026-04-23 15:10 | 19.95358 | 110.45774 | 64 ft | 129 kts | 88° |
| 2026-04-23 15:10 | 19.95376 | 110.46576 | 62 ft | 83 kts | 89° |
| 2026-04-23 15:11 | 19.95367 | 110.46944 | 56 ft | 20 kts | 105° |
| 2026-04-23 15:11 | 19.95312 | 110.47077 | 58 ft | 20 kts | 117° |
| 2026-04-23 15:11 | 19.95269 | 110.47141 | 60 ft | 7 kts | 151° |
| 2026-04-23 15:11 | 19.95225 | 110.47132 | 59 ft | 7 kts | 225° |
| 2026-04-23 15:12 | 19.95209 | 110.47078 | 60 ft | 9 kts | 265° |
| 2026-04-23 15:12 | 19.95207 | 110.47008 | 64 ft | 10 kts | 269° |
| 2026-04-23 15:12 | 19.95207 | 110.46932 | 64 ft | 11 kts | 270° |
| 2026-04-23 15:12 | 19.95206 | 110.46846 | 64 ft | 11 kts | 269° |
| 2026-04-23 15:13 | 19.95186 | 110.46792 | 59 ft | 8 kts | 217° |
| 2026-04-23 15:13 | 19.95098 | 110.46789 | 59 ft | 16 kts | 179° |
| 2026-04-23 15:13 | 19.94986 | 110.46791 | 60 ft | 16 kts | 179° |
| 2026-04-23 15:13 | 19.94873 | 110.46793 | 58 ft | 16 kts | 181° |
| 2026-04-23 15:14 | 19.94749 | 110.46790 | 62 ft | 21 kts | 180° |
| 2026-04-23 15:14 | 19.94575 | 110.46791 | 64 ft | 26 kts | 180° |
| 2026-04-23 15:14 | 19.94391 | 110.46792 | 68 ft | 26 kts | 180° |
| 2026-04-23 15:14 | 19.94207 | 110.46793 | 70 ft | 26 kts | 179° |
| 2026-04-23 15:15 | 19.94023 | 110.46794 | 70 ft | 26 kts | 180° |
| 2026-04-23 15:15 | 19.93840 | 110.46794 | 84 ft | 23 kts | 179° |
| 2026-04-23 15:15 | 19.93728 | 110.46795 | 84 ft | 9 kts | 180° |
| 2026-04-23 15:15 | 19.93671 | 110.46772 | 85 ft | 9 kts | 234° |
| 2026-04-23 15:16 | 19.93661 | 110.46694 | 84 ft | 11 kts | 266° |
| 2026-04-23 15:16 | 19.93658 | 110.46612 | 85 ft | 11 kts | 268° |
| 2026-04-23 15:16 | 19.93657 | 110.46530 | 85 ft | 11 kts | 270° |
| 2026-04-23 15:16 | 19.93659 | 110.46417 | 85 ft | 20 kts | 271° |
| 2026-04-23 15:17 | 19.93660 | 110.46229 | 86 ft | 30 kts | 270° |
| 2026-04-23 15:17 | 19.93660 | 110.46010 | 87 ft | 30 kts | 269° |
| 2026-04-23 15:17 | 19.93659 | 110.45788 | 88 ft | 30 kts | 270° |
| 2026-04-23 15:17 | 19.93658 | 110.45566 | 88 ft | 30 kts | 269° |
| 2026-04-23 15:18 | 19.93657 | 110.45344 | 89 ft | 30 kts | 270° |
| 2026-04-23 15:18 | 19.93657 | 110.45156 | 89 ft | 23 kts | 270° |
| 2026-04-23 15:18 | 19.93657 | 110.45039 | 89 ft | 8 kts | 273° |
| 2026-04-23 15:18 | 19.93684 | 110.44991 | 90 ft | 9 kts | 323° |
| 2026-04-23 15:19 | 19.93727 | 110.44941 | 87 ft | 9 kts | 289° |
| 2026-04-23 15:19 | 19.93728 | 110.44872 | 86 ft | 9 kts | 268° |
| 2026-04-23 15:19 | 19.93727 | 110.44803 | 90 ft | 9 kts | 270° |
| 2026-04-23 15:19 | 19.93747 | 110.44757 | 91 ft | 7 kts | 341° |
| 2026-04-23 15:20 | 19.93780 | 110.44753 | 91 ft | 2 kts | 358° |
| 2026-04-23 15:20 | 19.93810 | 110.44753 | 88 ft | 4 kts | 360° |
| 2026-04-23 15:20 | 19.93818 | 110.44753 | 89 ft | 0 kts | 360° |